sensor_id;sensor_type;location;lat;lon;timestamp;P1;durP1;ratioP1;P2;durP2;ratioP2
10801;SDS011;5453;50.852;7.102;2022-07-24T00:01:16;5.05;;;3.30;;
10801;SDS011;5453;50.852;7.102;2022-07-24T00:03:48;4.20;;;3.15;;
10801;SDS011;5453;50.852;7.102;2022-07-24T00:06:20;4.40;;;3.22;;
10801;SDS011;5453;50.852;7.102;2022-07-24T00:08:52;5.78;;;3.80;;
10801;SDS011;5453;50.852;7.102;2022-07-24T00:11:25;5.32;;;3.50;;
10801;SDS011;5453;50.852;7.102;2022-07-24T00:13:57;4.35;;;3.30;;
10801;SDS011;5453;50.852;7.102;2022-07-24T00:16:30;6.53;;;3.67;;
10801;SDS011;5453;50.852;7.102;2022-07-24T00:19:02;6.47;;;3.80;;
10801;SDS011;5453;50.852;7.102;2022-07-24T00:21:35;4.53;;;3.40;;
10801;SDS011;5453;50.852;7.102;2022-07-24T00:24:07;5.38;;;3.58;;
10801;SDS011;5453;50.852;7.102;2022-07-24T00:26:39;5.43;;;3.40;;
10801;SDS011;5453;50.852;7.102;2022-07-24T00:29:11;4.40;;;3.38;;
10801;SDS011;5453;50.852;7.102;2022-07-24T00:31:45;6.30;;;3.90;;
10801;SDS011;5453;50.852;7.102;2022-07-24T00:34:17;5.63;;;3.80;;
10801;SDS011;5453;50.852;7.102;2022-07-24T00:36:49;5.47;;;3.67;;
10801;SDS011;5453;50.852;7.102;2022-07-24T00:39:21;6.38;;;4.75;;
10801;SDS011;5453;50.852;7.102;2022-07-24T00:41:53;6.35;;;3.55;;
10801;SDS011;5453;50.852;7.102;2022-07-24T00:44:26;5.28;;;3.47;;
10801;SDS011;5453;50.852;7.102;2022-07-24T00:47:00;5.75;;;3.95;;
10801;SDS011;5453;50.852;7.102;2022-07-24T00:49:32;4.82;;;3.88;;
10801;SDS011;5453;50.852;7.102;2022-07-24T00:52:04;5.28;;;3.63;;
10801;SDS011;5453;50.852;7.102;2022-07-24T00:54:37;6.20;;;3.53;;
10801;SDS011;5453;50.852;7.102;2022-07-24T00:57:09;4.85;;;3.50;;
10801;SDS011;5453;50.852;7.102;2022-07-24T00:59:41;6.05;;;4.10;;
10801;SDS011;5453;50.852;7.102;2022-07-24T01:02:15;6.07;;;4.18;;
10801;SDS011;5453;50.852;7.102;2022-07-24T01:04:47;6.93;;;4.60;;
10801;SDS011;5453;50.852;7.102;2022-07-24T01:07:19;6.05;;;3.97;;
10801;SDS011;5453;50.852;7.102;2022-07-24T01:09:52;6.35;;;4.10;;
10801;SDS011;5453;50.852;7.102;2022-07-24T01:12:24;5.43;;;3.92;;
10801;SDS011;5453;50.852;7.102;2022-07-24T01:14:57;5.55;;;3.90;;
10801;SDS011;5453;50.852;7.102;2022-07-24T01:17:31;6.18;;;3.95;;
10801;SDS011;5453;50.852;7.102;2022-07-24T01:20:05;5.93;;;4.32;;
10801;SDS011;5453;50.852;7.102;2022-07-24T01:22:41;4.60;;;3.53;;
10801;SDS011;5453;50.852;7.102;2022-07-24T01:25:13;5.28;;;3.80;;
10801;SDS011;5453;50.852;7.102;2022-07-24T01:27:45;4.60;;;3.60;;
10801;SDS011;5453;50.852;7.102;2022-07-24T01:30:18;4.85;;;3.60;;
10801;SDS011;5453;50.852;7.102;2022-07-24T01:32:50;5.45;;;3.88;;
10801;SDS011;5453;50.852;7.102;2022-07-24T01:35:22;6.90;;;4.28;;
10801;SDS011;5453;50.852;7.102;2022-07-24T01:37:55;5.50;;;3.72;;
10801;SDS011;5453;50.852;7.102;2022-07-24T01:40:28;5.70;;;3.70;;
10801;SDS011;5453;50.852;7.102;2022-07-24T01:43:00;4.70;;;3.30;;
10801;SDS011;5453;50.852;7.102;2022-07-24T01:45:33;5.28;;;4.20;;
10801;SDS011;5453;50.852;7.102;2022-07-24T01:48:05;5.45;;;3.55;;
10801;SDS011;5453;50.852;7.102;2022-07-24T01:50:37;5.30;;;3.53;;
10801;SDS011;5453;50.852;7.102;2022-07-24T01:53:11;5.05;;;3.50;;
10801;SDS011;5453;50.852;7.102;2022-07-24T01:55:44;6.68;;;4.00;;
10801;SDS011;5453;50.852;7.102;2022-07-24T01:58:17;7.47;;;4.38;;
10801;SDS011;5453;50.852;7.102;2022-07-24T02:00:49;5.40;;;3.70;;
10801;SDS011;5453;50.852;7.102;2022-07-24T02:03:21;6.13;;;4.22;;
10801;SDS011;5453;50.852;7.102;2022-07-24T02:05:53;6.40;;;4.25;;
10801;SDS011;5453;50.852;7.102;2022-07-24T02:08:27;5.03;;;3.78;;
10801;SDS011;5453;50.852;7.102;2022-07-24T02:10:59;5.65;;;3.80;;
10801;SDS011;5453;50.852;7.102;2022-07-24T02:13:31;5.80;;;4.03;;
10801;SDS011;5453;50.852;7.102;2022-07-24T02:16:04;5.10;;;3.50;;
10801;SDS011;5453;50.852;7.102;2022-07-24T02:18:37;5.90;;;3.70;;
10801;SDS011;5453;50.852;7.102;2022-07-24T02:21:09;5.13;;;3.50;;
10801;SDS011;5453;50.852;7.102;2022-07-24T02:23:42;6.40;;;3.80;;
10801;SDS011;5453;50.852;7.102;2022-07-24T02:26:14;5.10;;;3.60;;
10801;SDS011;5453;50.852;7.102;2022-07-24T02:28:47;6.07;;;3.95;;
10801;SDS011;5453;50.852;7.102;2022-07-24T02:31:19;5.10;;;3.60;;
10801;SDS011;5453;50.852;7.102;2022-07-24T02:33:51;5.70;;;3.78;;
10801;SDS011;5453;50.852;7.102;2022-07-24T02:36:24;5.93;;;3.95;;
10801;SDS011;5453;50.852;7.102;2022-07-24T02:38:57;5.95;;;3.95;;
10801;SDS011;5453;50.852;7.102;2022-07-24T02:41:29;5.15;;;3.70;;
10801;SDS011;5453;50.852;7.102;2022-07-24T02:44:02;5.97;;;4.10;;
10801;SDS011;5453;50.852;7.102;2022-07-24T02:46:34;4.97;;;3.72;;
10801;SDS011;5453;50.852;7.102;2022-07-24T02:49:06;3.83;;;3.35;;
10801;SDS011;5453;50.852;7.102;2022-07-24T02:51:38;5.70;;;3.85;;
10801;SDS011;5453;50.852;7.102;2022-07-24T02:54:12;5.88;;;3.92;;
10801;SDS011;5453;50.852;7.102;2022-07-24T02:56:44;6.00;;;4.28;;
10801;SDS011;5453;50.852;7.102;2022-07-24T02:59:16;6.63;;;4.30;;
10801;SDS011;5453;50.852;7.102;2022-07-24T03:01:48;6.10;;;3.90;;
10801;SDS011;5453;50.852;7.102;2022-07-24T03:04:21;6.05;;;4.82;;
10801;SDS011;5453;50.852;7.102;2022-07-24T03:06:53;5.28;;;3.85;;
10801;SDS011;5453;50.852;7.102;2022-07-24T03:09:26;5.75;;;4.00;;
10801;SDS011;5453;50.852;7.102;2022-07-24T03:11:59;4.75;;;3.67;;
10801;SDS011;5453;50.852;7.102;2022-07-24T03:14:31;5.38;;;3.95;;
10801;SDS011;5453;50.852;7.102;2022-07-24T03:17:03;5.40;;;3.90;;
10801;SDS011;5453;50.852;7.102;2022-07-24T03:19:36;6.25;;;4.72;;
10801;SDS011;5453;50.852;7.102;2022-07-24T03:22:08;4.82;;;3.80;;
10801;SDS011;5453;50.852;7.102;2022-07-24T03:24:42;5.78;;;3.90;;
10801;SDS011;5453;50.852;7.102;2022-07-24T03:27:14;5.18;;;3.67;;
10801;SDS011;5453;50.852;7.102;2022-07-24T03:29:46;5.22;;;3.78;;
10801;SDS011;5453;50.852;7.102;2022-07-24T03:32:18;4.90;;;3.80;;
10801;SDS011;5453;50.852;7.102;2022-07-24T03:34:50;5.43;;;4.15;;
10801;SDS011;5453;50.852;7.102;2022-07-24T03:37:23;5.35;;;3.67;;
10801;SDS011;5453;50.852;7.102;2022-07-24T03:39:56;5.82;;;4.97;;
10801;SDS011;5453;50.852;7.102;2022-07-24T03:42:29;5.93;;;3.70;;
10801;SDS011;5453;50.852;7.102;2022-07-24T03:45:01;6.18;;;3.88;;
10801;SDS011;5453;50.852;7.102;2022-07-24T03:47:33;5.88;;;3.85;;
10801;SDS011;5453;50.852;7.102;2022-07-24T03:50:06;5.93;;;4.30;;
10801;SDS011;5453;50.852;7.102;2022-07-24T03:52:39;5.95;;;4.30;;
10801;SDS011;5453;50.852;7.102;2022-07-24T03:55:12;6.40;;;3.95;;
10801;SDS011;5453;50.852;7.102;2022-07-24T03:57:44;6.35;;;4.00;;
10801;SDS011;5453;50.852;7.102;2022-07-24T04:00:17;6.10;;;3.40;;
10801;SDS011;5453;50.852;7.102;2022-07-24T04:02:49;5.95;;;3.95;;
10801;SDS011;5453;50.852;7.102;2022-07-24T04:05:21;5.53;;;3.92;;
10801;SDS011;5453;50.852;7.102;2022-07-24T04:07:53;5.88;;;4.20;;
10801;SDS011;5453;50.852;7.102;2022-07-24T04:10:27;5.38;;;3.80;;
10801;SDS011;5453;50.852;7.102;2022-07-24T04:12:59;6.82;;;3.78;;
10801;SDS011;5453;50.852;7.102;2022-07-24T04:15:32;5.35;;;4.35;;
10801;SDS011;5453;50.852;7.102;2022-07-24T04:18:04;6.40;;;3.88;;
10801;SDS011;5453;50.852;7.102;2022-07-24T04:20:36;5.63;;;3.90;;
10801;SDS011;5453;50.852;7.102;2022-07-24T04:23:08;5.35;;;3.80;;
10801;SDS011;5453;50.852;7.102;2022-07-24T04:25:42;6.10;;;4.30;;
10801;SDS011;5453;50.852;7.102;2022-07-24T04:28:14;5.22;;;3.70;;
10801;SDS011;5453;50.852;7.102;2022-07-24T04:30:47;4.93;;;3.42;;
10801;SDS011;5453;50.852;7.102;2022-07-24T04:33:19;5.72;;;3.88;;
10801;SDS011;5453;50.852;7.102;2022-07-24T04:35:51;5.85;;;4.35;;
10801;SDS011;5453;50.852;7.102;2022-07-24T04:38:23;6.32;;;4.00;;
10801;SDS011;5453;50.852;7.102;2022-07-24T04:40:57;6.60;;;3.92;;
10801;SDS011;5453;50.852;7.102;2022-07-24T04:43:29;5.53;;;3.65;;
10801;SDS011;5453;50.852;7.102;2022-07-24T04:46:01;6.20;;;3.72;;
10801;SDS011;5453;50.852;7.102;2022-07-24T04:48:33;6.65;;;4.15;;
10801;SDS011;5453;50.852;7.102;2022-07-24T04:51:05;6.68;;;3.95;;
10801;SDS011;5453;50.852;7.102;2022-07-24T04:53:37;5.78;;;4.05;;
10801;SDS011;5453;50.852;7.102;2022-07-24T04:56:11;6.18;;;4.00;;
10801;SDS011;5453;50.852;7.102;2022-07-24T04:58:43;5.80;;;3.90;;
10801;SDS011;5453;50.852;7.102;2022-07-24T05:01:15;5.70;;;3.97;;
10801;SDS011;5453;50.852;7.102;2022-07-24T05:03:47;7.65;;;4.50;;
10801;SDS011;5453;50.852;7.102;2022-07-24T05:06:20;6.40;;;4.50;;
10801;SDS011;5453;50.852;7.102;2022-07-24T05:08:52;7.70;;;4.70;;
10801;SDS011;5453;50.852;7.102;2022-07-24T05:11:25;8.38;;;4.50;;
10801;SDS011;5453;50.852;7.102;2022-07-24T05:13:57;6.38;;;4.22;;
10801;SDS011;5453;50.852;7.102;2022-07-24T05:16:29;6.18;;;4.20;;
10801;SDS011;5453;50.852;7.102;2022-07-24T05:19:02;7.43;;;5.13;;
10801;SDS011;5453;50.852;7.102;2022-07-24T05:21:34;7.38;;;4.18;;
10801;SDS011;5453;50.852;7.102;2022-07-24T05:24:07;7.47;;;4.30;;
10801;SDS011;5453;50.852;7.102;2022-07-24T05:26:40;6.40;;;3.88;;
10801;SDS011;5453;50.852;7.102;2022-07-24T05:29:13;5.32;;;3.95;;
10801;SDS011;5453;50.852;7.102;2022-07-24T05:31:45;4.85;;;3.38;;
10801;SDS011;5453;50.852;7.102;2022-07-24T05:34:17;6.20;;;4.10;;
10801;SDS011;5453;50.852;7.102;2022-07-24T05:36:49;5.80;;;3.80;;
10801;SDS011;5453;50.852;7.102;2022-07-24T05:39:21;7.07;;;4.05;;
10801;SDS011;5453;50.852;7.102;2022-07-24T05:41:55;6.38;;;3.97;;
10801;SDS011;5453;50.852;7.102;2022-07-24T05:44:27;5.88;;;3.63;;
10801;SDS011;5453;50.852;7.102;2022-07-24T05:46:59;7.38;;;4.28;;
10801;SDS011;5453;50.852;7.102;2022-07-24T05:49:31;4.93;;;3.50;;
10801;SDS011;5453;50.852;7.102;2022-07-24T05:52:04;5.80;;;3.83;;
10801;SDS011;5453;50.852;7.102;2022-07-24T05:54:36;5.78;;;3.35;;
10801;SDS011;5453;50.852;7.102;2022-07-24T05:57:09;5.40;;;3.72;;
10801;SDS011;5453;50.852;7.102;2022-07-24T05:59:41;6.10;;;3.40;;
10801;SDS011;5453;50.852;7.102;2022-07-24T06:02:13;5.88;;;3.95;;
10801;SDS011;5453;50.852;7.102;2022-07-24T06:04:45;5.10;;;3.25;;
10801;SDS011;5453;50.852;7.102;2022-07-24T06:07:18;4.53;;;3.45;;
10801;SDS011;5453;50.852;7.102;2022-07-24T06:09:50;4.63;;;3.45;;
10801;SDS011;5453;50.852;7.102;2022-07-24T06:12:23;4.35;;;3.20;;
10801;SDS011;5453;50.852;7.102;2022-07-24T06:14:55;6.18;;;3.80;;
10801;SDS011;5453;50.852;7.102;2022-07-24T06:17:28;6.50;;;3.58;;
10801;SDS011;5453;50.852;7.102;2022-07-24T06:20:00;5.47;;;3.63;;
10801;SDS011;5453;50.852;7.102;2022-07-24T06:22:32;3.67;;;3.00;;
10801;SDS011;5453;50.852;7.102;2022-07-24T06:25:04;5.20;;;3.80;;
10801;SDS011;5453;50.852;7.102;2022-07-24T06:27:41;4.00;;;3.05;;
10801;SDS011;5453;50.852;7.102;2022-07-24T06:30:14;5.28;;;3.00;;
10801;SDS011;5453;50.852;7.102;2022-07-24T06:32:47;5.65;;;3.28;;
10801;SDS011;5453;50.852;7.102;2022-07-24T06:35:21;5.70;;;3.30;;
10801;SDS011;5453;50.852;7.102;2022-07-24T06:37:53;5.45;;;4.15;;
10801;SDS011;5453;50.852;7.102;2022-07-24T06:40:27;5.40;;;3.50;;
10801;SDS011;5453;50.852;7.102;2022-07-24T06:43:00;5.80;;;3.65;;
10801;SDS011;5453;50.852;7.102;2022-07-24T06:45:32;4.85;;;3.33;;
10801;SDS011;5453;50.852;7.102;2022-07-24T06:48:06;4.57;;;3.10;;
10801;SDS011;5453;50.852;7.102;2022-07-24T06:50:38;6.32;;;3.45;;
10801;SDS011;5453;50.852;7.102;2022-07-24T06:53:10;5.72;;;3.72;;
10801;SDS011;5453;50.852;7.102;2022-07-24T06:55:42;4.78;;;3.45;;
10801;SDS011;5453;50.852;7.102;2022-07-24T06:58:16;4.85;;;2.90;;
10801;SDS011;5453;50.852;7.102;2022-07-24T07:00:48;4.30;;;3.15;;
10801;SDS011;5453;50.852;7.102;2022-07-24T07:03:20;5.50;;;3.05;;
10801;SDS011;5453;50.852;7.102;2022-07-24T07:05:52;4.40;;;3.10;;
10801;SDS011;5453;50.852;7.102;2022-07-24T07:08:25;4.57;;;2.80;;
10801;SDS011;5453;50.852;7.102;2022-07-24T07:10:57;4.45;;;3.00;;
10801;SDS011;5453;50.852;7.102;2022-07-24T07:13:30;4.07;;;3.42;;
10801;SDS011;5453;50.852;7.102;2022-07-24T07:16:02;5.88;;;3.10;;
10801;SDS011;5453;50.852;7.102;2022-07-24T07:18:35;3.97;;;2.97;;
10801;SDS011;5453;50.852;7.102;2022-07-24T07:21:08;4.35;;;3.17;;
10801;SDS011;5453;50.852;7.102;2022-07-24T07:23:40;5.15;;;3.67;;
10801;SDS011;5453;50.852;7.102;2022-07-24T07:26:12;4.82;;;2.90;;
10801;SDS011;5453;50.852;7.102;2022-07-24T07:28:45;5.38;;;3.75;;
10801;SDS011;5453;50.852;7.102;2022-07-24T07:31:17;4.50;;;2.80;;
10801;SDS011;5453;50.852;7.102;2022-07-24T07:33:49;4.10;;;3.03;;
10801;SDS011;5453;50.852;7.102;2022-07-24T07:36:21;5.90;;;3.22;;
10801;SDS011;5453;50.852;7.102;2022-07-24T07:38:53;4.15;;;2.80;;
10801;SDS011;5453;50.852;7.102;2022-07-24T07:41:27;4.55;;;3.38;;
10801;SDS011;5453;50.852;7.102;2022-07-24T07:44:01;4.18;;;3.05;;
10801;SDS011;5453;50.852;7.102;2022-07-24T07:46:33;4.80;;;3.10;;
10801;SDS011;5453;50.852;7.102;2022-07-24T07:49:05;4.50;;;3.08;;
10801;SDS011;5453;50.852;7.102;2022-07-24T07:51:37;4.32;;;2.90;;
10801;SDS011;5453;50.852;7.102;2022-07-24T07:54:09;4.38;;;2.90;;
10801;SDS011;5453;50.852;7.102;2022-07-24T07:56:42;5.07;;;2.88;;
10801;SDS011;5453;50.852;7.102;2022-07-24T07:59:15;3.60;;;2.90;;
10801;SDS011;5453;50.852;7.102;2022-07-24T08:01:47;5.10;;;2.88;;
10801;SDS011;5453;50.852;7.102;2022-07-24T08:04:20;3.78;;;2.85;;
10801;SDS011;5453;50.852;7.102;2022-07-24T08:06:52;4.00;;;2.80;;
10801;SDS011;5453;50.852;7.102;2022-07-24T08:09:24;3.33;;;2.47;;
10801;SDS011;5453;50.852;7.102;2022-07-24T08:11:56;3.75;;;2.90;;
10801;SDS011;5453;50.852;7.102;2022-07-24T08:14:30;3.80;;;2.85;;
10801;SDS011;5453;50.852;7.102;2022-07-24T08:17:02;3.50;;;2.50;;
10801;SDS011;5453;50.852;7.102;2022-07-24T08:19:34;4.20;;;2.92;;
10801;SDS011;5453;50.852;7.102;2022-07-24T08:22:07;3.03;;;2.55;;
10801;SDS011;5453;50.852;7.102;2022-07-24T08:24:39;2.78;;;2.30;;
10801;SDS011;5453;50.852;7.102;2022-07-24T08:27:11;4.45;;;3.00;;
10801;SDS011;5453;50.852;7.102;2022-07-24T08:29:45;4.15;;;2.65;;
10801;SDS011;5453;50.852;7.102;2022-07-24T08:34:49;3.67;;;2.78;;
10801;SDS011;5453;50.852;7.102;2022-07-24T08:37:21;3.78;;;3.00;;
10801;SDS011;5453;50.852;7.102;2022-07-24T08:39:53;2.85;;;2.33;;
10801;SDS011;5453;50.852;7.102;2022-07-24T08:42:25;3.60;;;2.70;;
10801;SDS011;5453;50.852;7.102;2022-07-24T08:44:59;3.55;;;2.53;;
10801;SDS011;5453;50.852;7.102;2022-07-24T08:47:31;2.78;;;2.40;;
10801;SDS011;5453;50.852;7.102;2022-07-24T08:50:04;4.10;;;2.67;;
10801;SDS011;5453;50.852;7.102;2022-07-24T08:52:41;3.80;;;2.47;;
10801;SDS011;5453;50.852;7.102;2022-07-24T08:55:13;2.63;;;2.40;;
10801;SDS011;5453;50.852;7.102;2022-07-24T08:57:47;4.82;;;2.97;;
10801;SDS011;5453;50.852;7.102;2022-07-24T09:00:20;3.45;;;2.72;;
10801;SDS011;5453;50.852;7.102;2022-07-24T09:02:52;2.90;;;2.50;;
10801;SDS011;5453;50.852;7.102;2022-07-24T09:05:24;3.45;;;2.80;;
10801;SDS011;5453;50.852;7.102;2022-07-24T09:08:07;3.30;;;2.65;;
10801;SDS011;5453;50.852;7.102;2022-07-24T09:10:40;2.95;;;2.53;;
10801;SDS011;5453;50.852;7.102;2022-07-24T09:13:13;3.33;;;2.72;;
10801;SDS011;5453;50.852;7.102;2022-07-24T09:15:48;4.57;;;2.95;;
10801;SDS011;5453;50.852;7.102;2022-07-24T09:18:27;3.08;;;2.78;;
10801;SDS011;5453;50.852;7.102;2022-07-24T09:21:11;3.75;;;2.92;;
10801;SDS011;5453;50.852;7.102;2022-07-24T09:23:44;4.70;;;2.97;;
10801;SDS011;5453;50.852;7.102;2022-07-24T09:26:18;3.45;;;3.15;;
10801;SDS011;5453;50.852;7.102;2022-07-24T09:28:52;3.53;;;2.88;;
10801;SDS011;5453;50.852;7.102;2022-07-24T09:31:27;3.92;;;3.03;;
10801;SDS011;5453;50.852;7.102;2022-07-24T09:33:59;3.00;;;2.70;;
10801;SDS011;5453;50.852;7.102;2022-07-24T09:36:40;3.72;;;3.10;;
10801;SDS011;5453;50.852;7.102;2022-07-24T09:39:16;3.78;;;2.90;;
10801;SDS011;5453;50.852;7.102;2022-07-24T09:41:49;4.38;;;3.10;;
10801;SDS011;5453;50.852;7.102;2022-07-24T09:44:23;3.97;;;3.00;;
10801;SDS011;5453;50.852;7.102;2022-07-24T09:46:58;4.18;;;3.38;;
10801;SDS011;5453;50.852;7.102;2022-07-24T09:49:34;4.38;;;3.33;;
10801;SDS011;5453;50.852;7.102;2022-07-24T09:52:09;3.97;;;3.05;;
10801;SDS011;5453;50.852;7.102;2022-07-24T09:54:45;3.92;;;2.83;;
10801;SDS011;5453;50.852;7.102;2022-07-24T09:57:22;3.63;;;2.90;;
10801;SDS011;5453;50.852;7.102;2022-07-24T09:59:57;3.63;;;2.90;;
10801;SDS011;5453;50.852;7.102;2022-07-24T10:02:35;5.57;;;3.25;;
10801;SDS011;5453;50.852;7.102;2022-07-24T10:05:08;4.80;;;3.10;;
10801;SDS011;5453;50.852;7.102;2022-07-24T10:07:44;3.83;;;3.33;;
10801;SDS011;5453;50.852;7.102;2022-07-24T10:10:20;5.38;;;3.40;;
10801;SDS011;5453;50.852;7.102;2022-07-24T10:12:53;5.25;;;3.10;;
10801;SDS011;5453;50.852;7.102;2022-07-24T10:15:26;5.20;;;3.13;;
10801;SDS011;5453;50.852;7.102;2022-07-24T10:21:05;5.32;;;3.50;;
10801;SDS011;5453;50.852;7.102;2022-07-24T10:23:57;5.93;;;3.60;;
10801;SDS011;5453;50.852;7.102;2022-07-24T10:27:00;5.13;;;3.40;;
10801;SDS011;5453;50.852;7.102;2022-07-24T10:29:35;5.38;;;3.65;;
10801;SDS011;5453;50.852;7.102;2022-07-24T10:32:07;3.45;;;3.03;;
10801;SDS011;5453;50.852;7.102;2022-07-24T10:34:45;4.95;;;3.25;;
10801;SDS011;5453;50.852;7.102;2022-07-24T10:37:24;5.32;;;3.97;;
10801;SDS011;5453;50.852;7.102;2022-07-24T10:40:06;5.18;;;3.72;;
10801;SDS011;5453;50.852;7.102;2022-07-24T10:45:43;4.68;;;3.33;;
10801;SDS011;5453;50.852;7.102;2022-07-24T10:48:30;5.82;;;3.63;;
10801;SDS011;5453;50.852;7.102;2022-07-24T10:51:08;3.75;;;3.00;;
10801;SDS011;5453;50.852;7.102;2022-07-24T10:53:47;5.32;;;3.60;;
10801;SDS011;5453;50.852;7.102;2022-07-24T10:56:24;4.40;;;3.33;;
10801;SDS011;5453;50.852;7.102;2022-07-24T10:58:59;4.47;;;3.20;;
10801;SDS011;5453;50.852;7.102;2022-07-24T11:01:38;4.88;;;3.20;;
10801;SDS011;5453;50.852;7.102;2022-07-24T11:04:28;4.68;;;3.10;;
10801;SDS011;5453;50.852;7.102;2022-07-24T11:07:09;4.28;;;3.22;;
10801;SDS011;5453;50.852;7.102;2022-07-24T11:09:55;4.55;;;3.88;;
10801;SDS011;5453;50.852;7.102;2022-07-24T11:12:31;4.53;;;3.55;;
10801;SDS011;5453;50.852;7.102;2022-07-24T11:15:05;6.13;;;3.38;;
10801;SDS011;5453;50.852;7.102;2022-07-24T11:17:55;5.38;;;3.50;;
10801;SDS011;5453;50.852;7.102;2022-07-24T11:20:44;4.60;;;3.20;;
10801;SDS011;5453;50.852;7.102;2022-07-24T11:23:21;4.55;;;3.47;;
10801;SDS011;5453;50.852;7.102;2022-07-24T11:26:08;5.85;;;3.47;;
10801;SDS011;5453;50.852;7.102;2022-07-24T11:29:11;4.75;;;3.13;;
10801;SDS011;5453;50.852;7.102;2022-07-24T11:31:45;4.72;;;3.20;;
10801;SDS011;5453;50.852;7.102;2022-07-24T11:34:19;4.60;;;3.33;;
10801;SDS011;5453;50.852;7.102;2022-07-24T11:36:52;4.15;;;3.45;;
10801;SDS011;5453;50.852;7.102;2022-07-24T11:39:28;6.25;;;3.50;;
10801;SDS011;5453;50.852;7.102;2022-07-24T11:42:02;4.25;;;3.00;;
10801;SDS011;5453;50.852;7.102;2022-07-24T11:44:37;4.07;;;3.10;;
10801;SDS011;5453;50.852;7.102;2022-07-24T11:47:11;4.03;;;3.05;;
10801;SDS011;5453;50.852;7.102;2022-07-24T11:49:46;4.60;;;3.13;;
10801;SDS011;5453;50.852;7.102;2022-07-24T11:52:20;4.90;;;3.30;;
10801;SDS011;5453;50.852;7.102;2022-07-24T11:54:56;4.53;;;3.13;;
10801;SDS011;5453;50.852;7.102;2022-07-24T11:57:32;3.45;;;2.72;;
10801;SDS011;5453;50.852;7.102;2022-07-24T12:00:06;3.92;;;2.78;;
10801;SDS011;5453;50.852;7.102;2022-07-24T12:02:42;4.63;;;3.10;;
10801;SDS011;5453;50.852;7.102;2022-07-24T12:05:23;4.90;;;3.03;;
10801;SDS011;5453;50.852;7.102;2022-07-24T12:07:57;4.35;;;3.45;;
10801;SDS011;5453;50.852;7.102;2022-07-24T12:10:32;4.13;;;3.35;;
10801;SDS011;5453;50.852;7.102;2022-07-24T12:13:06;4.85;;;3.30;;
10801;SDS011;5453;50.852;7.102;2022-07-24T12:15:38;3.63;;;2.80;;
10801;SDS011;5453;50.852;7.102;2022-07-24T12:18:10;3.97;;;3.05;;
10801;SDS011;5453;50.852;7.102;2022-07-24T12:20:43;4.05;;;2.60;;
10801;SDS011;5453;50.852;7.102;2022-07-24T12:23:16;3.80;;;2.90;;
10801;SDS011;5453;50.852;7.102;2022-07-24T12:25:51;3.40;;;2.70;;
10801;SDS011;5453;50.852;7.102;2022-07-24T12:30:55;3.97;;;3.00;;
10801;SDS011;5453;50.852;7.102;2022-07-24T12:33:27;3.67;;;2.72;;
10801;SDS011;5453;50.852;7.102;2022-07-24T12:36:03;3.60;;;3.03;;
10801;SDS011;5453;50.852;7.102;2022-07-24T12:38:41;3.20;;;2.50;;
10801;SDS011;5453;50.852;7.102;2022-07-24T12:41:24;3.38;;;2.65;;
10801;SDS011;5453;50.852;7.102;2022-07-24T12:43:58;3.40;;;2.67;;
10801;SDS011;5453;50.852;7.102;2022-07-24T12:46:32;3.83;;;2.65;;
10801;SDS011;5453;50.852;7.102;2022-07-24T12:49:07;4.32;;;2.80;;
10801;SDS011;5453;50.852;7.102;2022-07-24T12:51:45;3.85;;;2.80;;
10801;SDS011;5453;50.852;7.102;2022-07-24T12:54:19;3.78;;;2.70;;
10801;SDS011;5453;50.852;7.102;2022-07-24T12:56:55;5.13;;;3.15;;
10801;SDS011;5453;50.852;7.102;2022-07-24T12:59:30;4.50;;;3.00;;
10801;SDS011;5453;50.852;7.102;2022-07-24T13:02:04;4.00;;;3.00;;
10801;SDS011;5453;50.852;7.102;2022-07-24T13:04:42;5.63;;;3.28;;
10801;SDS011;5453;50.852;7.102;2022-07-24T13:07:17;4.32;;;3.03;;
10801;SDS011;5453;50.852;7.102;2022-07-24T13:09:51;4.50;;;3.10;;
10801;SDS011;5453;50.852;7.102;2022-07-24T13:12:25;4.80;;;2.80;;
10801;SDS011;5453;50.852;7.102;2022-07-24T13:14:57;3.92;;;2.90;;
10801;SDS011;5453;50.852;7.102;2022-07-24T13:17:29;3.88;;;3.05;;
10801;SDS011;5453;50.852;7.102;2022-07-24T13:20:02;3.50;;;3.00;;
10801;SDS011;5453;50.852;7.102;2022-07-24T13:22:37;5.00;;;3.10;;
10801;SDS011;5453;50.852;7.102;2022-07-24T13:25:09;3.92;;;2.85;;
10801;SDS011;5453;50.852;7.102;2022-07-24T13:27:42;4.00;;;2.80;;
10801;SDS011;5453;50.852;7.102;2022-07-24T13:30:14;4.45;;;3.25;;
10801;SDS011;5453;50.852;7.102;2022-07-24T13:32:46;5.50;;;3.50;;
10801;SDS011;5453;50.852;7.102;2022-07-24T13:35:19;3.88;;;2.70;;
10801;SDS011;5453;50.852;7.102;2022-07-24T13:37:51;4.28;;;3.17;;
10801;SDS011;5453;50.852;7.102;2022-07-24T13:40:23;3.38;;;3.00;;
10801;SDS011;5453;50.852;7.102;2022-07-24T13:42:56;3.15;;;2.60;;
10801;SDS011;5453;50.852;7.102;2022-07-24T13:45:28;3.08;;;2.55;;
10801;SDS011;5453;50.852;7.102;2022-07-24T13:48:01;4.20;;;2.80;;
10801;SDS011;5453;50.852;7.102;2022-07-24T13:50:33;4.05;;;2.92;;
10801;SDS011;5453;50.852;7.102;2022-07-24T13:53:05;4.22;;;2.83;;
10801;SDS011;5453;50.852;7.102;2022-07-24T13:55:37;5.03;;;3.30;;
10801;SDS011;5453;50.852;7.102;2022-07-24T13:58:11;4.20;;;2.92;;
10801;SDS011;5453;50.852;7.102;2022-07-24T14:00:43;3.10;;;2.80;;
10801;SDS011;5453;50.852;7.102;2022-07-24T14:03:15;5.55;;;3.30;;
10801;SDS011;5453;50.852;7.102;2022-07-24T14:05:47;5.03;;;2.72;;
10801;SDS011;5453;50.852;7.102;2022-07-24T14:08:20;4.05;;;3.00;;
10801;SDS011;5453;50.852;7.102;2022-07-24T14:10:52;5.18;;;3.50;;
10801;SDS011;5453;50.852;7.102;2022-07-24T14:13:25;4.07;;;2.72;;
10801;SDS011;5453;50.852;7.102;2022-07-24T14:15:57;4.50;;;3.00;;
10801;SDS011;5453;50.852;7.102;2022-07-24T14:18:30;3.92;;;3.00;;
10801;SDS011;5453;50.852;7.102;2022-07-24T14:21:02;4.47;;;2.92;;
10801;SDS011;5453;50.852;7.102;2022-07-24T14:23:34;2.78;;;2.38;;
10801;SDS011;5453;50.852;7.102;2022-07-24T14:26:06;3.80;;;2.85;;
10801;SDS011;5453;50.852;7.102;2022-07-24T14:28:40;3.00;;;2.50;;
10801;SDS011;5453;50.852;7.102;2022-07-24T14:31:12;3.90;;;2.50;;
10801;SDS011;5453;50.852;7.102;2022-07-24T14:33:44;2.80;;;2.33;;
10801;SDS011;5453;50.852;7.102;2022-07-24T14:36:16;3.75;;;2.63;;
10801;SDS011;5453;50.852;7.102;2022-07-24T14:38:49;3.97;;;2.55;;
10801;SDS011;5453;50.852;7.102;2022-07-24T14:41:21;3.53;;;2.53;;
10801;SDS011;5453;50.852;7.102;2022-07-24T14:43:54;3.50;;;2.53;;
10801;SDS011;5453;50.852;7.102;2022-07-24T14:46:26;3.20;;;2.50;;
10801;SDS011;5453;50.852;7.102;2022-07-24T14:48:58;4.10;;;2.67;;
10801;SDS011;5453;50.852;7.102;2022-07-24T14:51:31;3.22;;;2.45;;
10801;SDS011;5453;50.852;7.102;2022-07-24T14:54:03;3.42;;;2.38;;
10801;SDS011;5453;50.852;7.102;2022-07-24T14:56:36;4.18;;;2.75;;
10801;SDS011;5453;50.852;7.102;2022-07-24T14:59:11;5.28;;;3.00;;
10801;SDS011;5453;50.852;7.102;2022-07-24T15:01:43;4.78;;;2.92;;
10801;SDS011;5453;50.852;7.102;2022-07-24T15:04:15;3.55;;;2.80;;
10801;SDS011;5453;50.852;7.102;2022-07-24T15:06:47;3.33;;;2.50;;
10801;SDS011;5453;50.852;7.102;2022-07-24T15:09:20;4.95;;;2.60;;
10801;SDS011;5453;50.852;7.102;2022-07-24T15:11:52;3.30;;;2.92;;
10801;SDS011;5453;50.852;7.102;2022-07-24T15:14:25;3.33;;;2.50;;
10801;SDS011;5453;50.852;7.102;2022-07-24T15:16:57;3.15;;;2.40;;
10801;SDS011;5453;50.852;7.102;2022-07-24T15:19:30;3.03;;;2.17;;
10801;SDS011;5453;50.852;7.102;2022-07-24T15:22:02;3.15;;;2.38;;
10801;SDS011;5453;50.852;7.102;2022-07-24T15:24:34;3.15;;;2.55;;
10801;SDS011;5453;50.852;7.102;2022-07-24T15:27:06;2.83;;;2.10;;
10801;SDS011;5453;50.852;7.102;2022-07-24T15:29:40;2.78;;;2.30;;
10801;SDS011;5453;50.852;7.102;2022-07-24T15:32:12;3.00;;;2.45;;
10801;SDS011;5453;50.852;7.102;2022-07-24T15:34:44;3.15;;;2.40;;
10801;SDS011;5453;50.852;7.102;2022-07-24T15:37:16;4.90;;;2.90;;
10801;SDS011;5453;50.852;7.102;2022-07-24T15:39:48;4.32;;;2.80;;
10801;SDS011;5453;50.852;7.102;2022-07-24T15:42:20;3.83;;;2.90;;
10801;SDS011;5453;50.852;7.102;2022-07-24T15:44:54;4.07;;;2.78;;
10801;SDS011;5453;50.852;7.102;2022-07-24T15:47:26;3.22;;;2.50;;
10801;SDS011;5453;50.852;7.102;2022-07-24T15:49:58;3.35;;;2.80;;